createdAt,value
2022-10-15T00:01:39.845Z,85.78
2022-10-15T00:04:06.612Z,85.68
2022-10-15T00:06:34.823Z,85.63
2022-10-15T00:09:01.928Z,85.49
2022-10-15T00:11:29.324Z,85.52
2022-10-15T00:13:58.431Z,85.50
2022-10-15T00:16:27.020Z,85.17
2022-10-15T00:18:56.365Z,85.48
2022-10-15T00:21:23.137Z,85.61
2022-10-15T00:23:51.722Z,85.23
2022-10-15T00:26:20.046Z,85.03
2022-10-15T00:28:47.321Z,85.33
2022-10-15T00:31:16.034Z,85.32
2022-10-15T00:33:43.546Z,84.97
2022-10-15T00:36:13.574Z,85.21
2022-10-15T00:38:40.332Z,85.08
2022-10-15T00:41:12.830Z,85.25
2022-10-15T00:43:42.507Z,85.14
2022-10-15T00:46:17.895Z,85.36
2022-10-15T00:48:48.287Z,85.34
2022-10-15T00:51:17.396Z,85.19
2022-10-15T00:53:44.739Z,85.22
2022-10-15T00:56:13.729Z,85.01
2022-10-15T00:58:40.917Z,85.08
2022-10-15T01:01:07.730Z,85.01
2022-10-15T01:03:35.913Z,85.33
2022-10-15T01:06:03.826Z,85.13
2022-10-15T01:08:30.539Z,85.05
2022-10-15T01:11:10.449Z,85.18
2022-10-15T01:13:49.442Z,85.17
2022-10-15T01:16:20.192Z,85.42
2022-10-15T01:18:54.261Z,85.39
2022-10-15T01:21:29.390Z,85.47
2022-10-15T01:24:49.912Z,85.59
2022-10-15T01:27:27.619Z,85.35
2022-10-15T01:30:21.177Z,85.55
2022-10-15T01:33:00.136Z,85.52
2022-10-15T01:35:36.415Z,85.70
2022-10-15T01:38:10.104Z,85.35
2022-10-15T01:40:44.759Z,85.67
2022-10-15T01:43:15.792Z,85.76
2022-10-15T01:45:49.317Z,85.94
2022-10-15T01:48:17.946Z,86.00
2022-10-15T01:50:47.698Z,86.09
2022-10-15T01:53:17.413Z,85.97
2022-10-15T01:55:47.461Z,85.97
2022-10-15T01:58:16.214Z,86.17
2022-10-15T02:00:44.742Z,86.27
2022-10-15T02:03:11.567Z,86.39
2022-10-15T02:05:42.372Z,86.10
2022-10-15T02:08:19.735Z,86.07
2022-10-15T02:10:54.099Z,86.15
2022-10-15T02:13:25.791Z,86.25
2022-10-15T02:16:02.179Z,86.27
2022-10-15T02:18:37.046Z,86.75
2022-10-15T02:21:10.064Z,86.38
2022-10-15T02:23:43.079Z,86.61
2022-10-15T02:26:12.254Z,86.72
2022-10-15T02:28:44.224Z,86.64
2022-10-15T02:31:15.226Z,86.91
2022-10-15T02:33:43.041Z,86.60
2022-10-15T02:36:09.877Z,86.76
2022-10-15T02:38:38.771Z,86.83
2022-10-15T02:41:07.654Z,87.23
2022-10-15T02:43:35.518Z,87.07
2022-10-15T02:46:02.154Z,87.00
2022-10-15T02:48:30.241Z,86.92
2022-10-15T02:50:57.133Z,86.73
2022-10-15T02:53:23.778Z,86.99
2022-10-15T02:55:50.347Z,87.08
2022-10-15T02:58:16.995Z,86.90
2022-10-15T03:00:43.663Z,87.10
2022-10-15T03:03:10.921Z,87.02
2022-10-15T03:05:39.004Z,86.90
2022-10-15T03:08:05.711Z,86.91
2022-10-15T03:10:32.340Z,86.88
2022-10-15T03:13:02.887Z,87.07
2022-10-15T03:15:29.780Z,87.05
2022-10-15T03:17:56.540Z,86.71
2022-10-15T03:20:23.431Z,86.73
2022-10-15T03:22:51.436Z,86.49
2022-10-15T03:25:18.091Z,86.89
2022-10-15T03:27:44.756Z,86.46
2022-10-15T03:30:11.937Z,86.55
2022-10-15T03:32:40.556Z,86.70
2022-10-15T03:35:08.432Z,86.72
2022-10-15T03:37:35.040Z,86.62
2022-10-15T03:40:03.506Z,86.81
2022-10-15T03:42:30.088Z,86.88
2022-10-15T03:44:56.912Z,86.84
2022-10-15T03:47:23.490Z,86.40
2022-10-15T03:49:50.121Z,86.94
2022-10-15T03:52:17.566Z,87.06
2022-10-15T03:54:44.287Z,87.04
2022-10-15T03:57:13.616Z,86.92
2022-10-15T03:59:40.389Z,87.08
2022-10-15T04:02:07.167Z,86.76
2022-10-15T04:04:33.907Z,87.14
2022-10-15T04:07:00.604Z,87.02
2022-10-15T04:09:27.249Z,87.14
2022-10-15T04:11:53.882Z,87.10
2022-10-15T04:14:21.822Z,87.36
2022-10-15T04:16:48.523Z,87.08
2022-10-15T04:19:16.020Z,87.35
2022-10-15T04:21:42.918Z,87.19
2022-10-15T04:24:09.572Z,87.14
2022-10-15T04:26:36.390Z,87.34
2022-10-15T04:29:03.073Z,87.14
2022-10-15T04:31:32.448Z,87.32
2022-10-15T04:33:59.143Z,87.39
2022-10-15T04:36:25.785Z,87.24
2022-10-15T04:38:52.794Z,87.48
2022-10-15T04:41:19.437Z,87.12
2022-10-15T04:43:46.090Z,87.21
2022-10-15T04:46:12.680Z,87.40
2022-10-15T04:48:43.126Z,87.33
2022-10-15T04:51:12.946Z,87.42
2022-10-15T04:53:40.581Z,87.52
2022-10-15T04:56:10.420Z,87.51
2022-10-15T04:58:37.212Z,87.71
2022-10-15T05:01:06.271Z,87.55
2022-10-15T05:03:36.488Z,87.74
2022-10-15T05:06:09.970Z,87.47
2022-10-15T05:08:38.127Z,87.80
2022-10-15T05:11:06.909Z,87.70
2022-10-15T05:13:34.218Z,87.95
2022-10-15T05:16:09.596Z,87.79
2022-10-15T05:18:36.177Z,87.90
2022-10-15T05:21:03.138Z,88.03
2022-10-15T05:23:31.316Z,88.05
2022-10-15T05:25:59.936Z,87.93
2022-10-15T05:28:26.678Z,87.79
2022-10-15T05:30:53.367Z,87.66
2022-10-15T05:33:20.832Z,87.73
2022-10-15T05:35:48.007Z,87.96
2022-10-15T05:38:14.653Z,87.59
2022-10-15T05:40:47.881Z,87.93
2022-10-15T05:43:14.690Z,87.74
2022-10-15T05:45:41.495Z,87.89
2022-10-15T05:48:08.306Z,87.60
2022-10-15T05:50:34.950Z,87.61
2022-10-15T05:53:01.620Z,87.96
2022-10-15T05:55:28.175Z,87.70
2022-10-15T05:58:00.465Z,87.87
2022-10-15T06:00:27.079Z,87.79
2022-10-15T06:05:20.206Z,88.14
2022-10-15T06:07:46.767Z,88.28
2022-10-15T06:10:13.605Z,88.56
2022-10-15T06:12:41.399Z,88.37
2022-10-15T06:15:10.490Z,88.54
2022-10-15T06:17:37.406Z,88.46
2022-10-15T06:20:08.151Z,88.95
2022-10-15T06:22:35.010Z,88.74
2022-10-15T06:25:01.797Z,88.73
2022-10-15T06:27:28.495Z,88.73
2022-10-15T06:29:55.110Z,89.02
2022-10-15T06:32:24.299Z,88.84
2022-10-15T06:34:51.070Z,88.67
2022-10-15T06:37:17.665Z,88.75
2022-10-15T06:39:44.560Z,88.80
2022-10-15T06:42:11.118Z,88.71
2022-10-15T06:44:37.884Z,88.90
2022-10-15T06:47:04.710Z,88.83
2022-10-15T06:49:32.690Z,88.94
2022-10-15T06:52:03.412Z,89.03
2022-10-15T06:54:30.624Z,88.97
2022-10-15T06:56:57.313Z,88.72
2022-10-15T06:59:24.555Z,88.74
2022-10-15T07:01:51.317Z,88.92
2022-10-15T07:04:17.908Z,88.64
2022-10-15T07:06:45.934Z,88.81
2022-10-15T07:09:12.547Z,88.37
2022-10-15T07:11:40.194Z,88.33
2022-10-15T07:14:06.918Z,88.44
2022-10-15T07:16:33.946Z,88.39
2022-10-15T07:19:00.542Z,88.47
2022-10-15T07:21:27.226Z,88.56
2022-10-15T07:23:55.275Z,88.24
2022-10-15T07:26:22.021Z,88.03
2022-10-15T07:28:48.757Z,88.45
2022-10-15T07:31:15.438Z,88.23
2022-10-15T07:33:43.014Z,88.12
2022-10-15T07:36:12.781Z,88.54
2022-10-15T07:38:42.320Z,88.27
2022-10-15T07:41:11.022Z,88.35
2022-10-15T07:43:37.768Z,88.32
2022-10-15T07:46:05.684Z,88.35
2022-10-15T07:48:32.933Z,88.53
2022-10-15T07:51:01.488Z,88.31
2022-10-15T07:53:28.187Z,88.60
2022-10-15T07:55:58.863Z,88.74
2022-10-15T07:58:26.987Z,88.61
2022-10-15T08:00:53.826Z,88.75
2022-10-15T08:03:20.684Z,88.76
2022-10-15T08:05:47.391Z,88.85
2022-10-15T08:08:14.079Z,88.81
2022-10-15T08:10:40.719Z,88.72
2022-10-15T08:13:07.433Z,88.93
2022-10-15T08:15:39.061Z,88.71
2022-10-15T08:18:05.773Z,88.66
2022-10-15T08:20:34.484Z,88.61
2022-10-15T08:23:01.082Z,88.46
2022-10-15T08:25:27.670Z,88.36
2022-10-15T08:27:54.656Z,88.02
2022-10-15T08:30:21.436Z,88.08
2022-10-15T08:32:49.443Z,88.11
2022-10-15T08:35:16.131Z,88.10
2022-10-15T08:37:42.795Z,88.19
2022-10-15T08:40:12.588Z,88.22
2022-10-15T08:42:41.814Z,88.48
2022-10-15T08:45:13.997Z,88.50
2022-10-15T08:47:43.867Z,88.44
2022-10-15T08:50:26.486Z,88.51
2022-10-15T08:52:55.908Z,88.56
2022-10-15T08:57:55.782Z,88.38
2022-10-15T09:00:24.836Z,88.33
2022-10-15T09:02:58.156Z,88.69
2022-10-15T09:05:39.017Z,88.54
2022-10-15T09:08:18.011Z,88.25
2022-10-15T09:10:48.940Z,88.34
2022-10-15T09:13:21.972Z,88.12
2022-10-15T09:15:52.586Z,88.21
2022-10-15T09:18:23.707Z,88.03
2022-10-15T09:20:53.701Z,88.04
2022-10-15T09:23:22.800Z,88.23
2022-10-15T09:25:56.928Z,87.92
2022-10-15T09:28:30.029Z,88.01
2022-10-15T09:30:58.342Z,87.88
2022-10-15T09:33:36.854Z,87.89
2022-10-15T09:36:18.316Z,87.80
2022-10-15T09:38:58.076Z,87.83
2022-10-15T09:41:35.328Z,87.93
2022-10-15T09:44:05.668Z,87.83
2022-10-15T09:46:33.932Z,87.67
2022-10-15T09:49:09.050Z,87.71
2022-10-15T09:51:44.051Z,87.71
2022-10-15T09:54:17.767Z,88.00
2022-10-15T09:56:48.396Z,87.68
2022-10-15T09:59:17.461Z,87.61
2022-10-15T10:01:57.689Z,87.86
2022-10-15T10:04:29.884Z,87.52
2022-10-15T10:07:04.615Z,87.76
2022-10-15T10:09:36.355Z,87.45
2022-10-15T10:12:06.856Z,87.82
2022-10-15T10:14:36.190Z,87.78
2022-10-15T10:17:08.647Z,87.74
2022-10-15T10:19:35.410Z,87.94
2022-10-15T10:22:14.043Z,87.81
2022-10-15T10:24:40.525Z,87.74
2022-10-15T10:27:18.773Z,87.56
2022-10-15T10:29:53.272Z,87.70
2022-10-15T10:32:22.179Z,87.72
2022-10-15T10:34:52.722Z,87.94
2022-10-15T10:37:22.599Z,88.02
2022-10-15T10:39:53.517Z,88.20
2022-10-15T10:42:32.651Z,88.22
2022-10-15T10:45:22.276Z,88.44
2022-10-15T10:47:49.926Z,88.61
2022-10-15T10:50:29.304Z,88.67
2022-10-15T10:52:59.991Z,88.62
2022-10-15T10:55:37.934Z,88.79
2022-10-15T10:58:04.638Z,88.95
2022-10-15T11:00:39.006Z,88.74
2022-10-15T11:03:10.195Z,89.01
2022-10-15T11:05:43.195Z,89.14
2022-10-15T11:08:21.509Z,89.19
2022-10-15T11:10:57.319Z,89.29
2022-10-15T11:13:44.820Z,89.35
2022-10-15T11:16:20.770Z,89.25
2022-10-15T11:19:13.628Z,89.18
2022-10-15T11:21:58.893Z,89.05
2022-10-15T11:24:42.604Z,89.34
2022-10-15T11:35:52.424Z,89.32
2022-10-15T11:38:27.722Z,89.27
2022-10-15T11:41:16.314Z,89.54
2022-10-15T11:44:21.555Z,89.44
2022-10-15T11:46:55.822Z,89.48
2022-10-15T11:49:41.460Z,89.70
2022-10-15T11:52:25.511Z,89.79
2022-10-15T11:55:08.967Z,89.94
2022-10-15T11:57:40.399Z,89.86
2022-10-15T12:00:20.451Z,90.03
2022-10-15T12:02:49.701Z,90.18
2022-10-15T12:05:20.896Z,90.27
2022-10-15T12:07:50.170Z,90.25
2022-10-15T12:10:33.264Z,90.23
2022-10-15T12:13:11.791Z,90.38
2022-10-15T12:15:46.284Z,90.52
2022-10-15T12:18:20.400Z,90.39
2022-10-15T12:20:47.240Z,90.63
2022-10-15T12:23:39.342Z,90.60
2022-10-15T12:26:28.527Z,90.81
2022-10-15T12:29:00.769Z,91.00
2022-10-15T12:31:48.909Z,90.84
2022-10-15T12:34:30.902Z,91.17
2022-10-15T12:37:03.672Z,90.94
2022-10-15T12:39:51.264Z,91.14
2022-10-15T12:42:26.119Z,91.11
2022-10-15T12:44:56.008Z,91.20
2022-10-15T12:47:48.929Z,91.18
2022-10-15T12:50:20.104Z,91.29
2022-10-15T12:52:59.137Z,91.17
2022-10-15T12:55:31.706Z,91.25
2022-10-15T12:58:04.881Z,91.33
2022-10-15T13:00:46.397Z,91.40
2022-10-15T13:03:31.594Z,91.37
2022-10-15T13:06:13.991Z,91.40
2022-10-15T13:08:44.479Z,91.41
2022-10-15T13:11:22.012Z,91.69
2022-10-15T13:13:50.969Z,91.58
2022-10-15T13:16:20.625Z,91.70
2022-10-15T13:18:50.555Z,91.65
2022-10-15T13:21:17.558Z,91.82
2022-10-15T13:23:48.757Z,91.90
2022-10-15T13:26:20.777Z,91.96
2022-10-15T13:28:49.064Z,92.05
2022-10-15T13:31:24.723Z,92.14
2022-10-15T13:33:55.006Z,92.21
2022-10-15T13:36:24.186Z,92.17
2022-10-15T13:38:57.031Z,92.08
2022-10-15T13:41:26.063Z,92.06
2022-10-15T13:43:58.494Z,92.10
2022-10-15T13:46:28.366Z,92.17
2022-10-15T13:49:00.387Z,92.12
2022-10-15T13:51:33.684Z,92.15
2022-10-15T13:54:02.581Z,92.07
2022-10-15T13:56:31.370Z,91.86
2022-10-15T13:59:01.752Z,92.10
2022-10-15T14:01:33.607Z,92.06
2022-10-15T14:04:01.843Z,92.11
2022-10-15T14:06:31.066Z,92.01
2022-10-15T14:08:59.984Z,92.03
2022-10-15T14:11:29.207Z,91.93
2022-10-15T14:13:59.901Z,91.94
2022-10-15T14:16:32.966Z,91.89
2022-10-15T14:19:09.726Z,91.80
2022-10-15T14:21:39.156Z,91.74
2022-10-15T14:24:07.758Z,92.06
2022-10-15T14:26:35.087Z,91.87
2022-10-15T14:29:02.649Z,92.22
2022-10-15T14:31:37.950Z,91.92
2022-10-15T14:34:05.062Z,91.87
2022-10-15T14:36:41.058Z,91.71
2022-10-15T14:39:28.937Z,91.64
2022-10-15T14:41:57.719Z,91.56
2022-10-15T14:44:25.734Z,91.58
2022-10-15T14:47:03.580Z,91.27
2022-10-15T14:49:33.133Z,91.20
2022-10-15T14:52:04.934Z,91.12
2022-10-15T14:54:36.760Z,91.12
2022-10-15T14:57:05.070Z,91.04
2022-10-15T14:59:36.257Z,90.85
2022-10-15T15:02:10.327Z,90.84
2022-10-15T15:04:42.877Z,90.70
2022-10-15T15:07:15.810Z,90.75
2022-10-15T15:09:42.625Z,90.52
2022-10-15T15:12:16.594Z,90.39
2022-10-15T15:14:43.532Z,90.34
2022-10-15T15:17:34.746Z,90.28
2022-10-15T15:20:01.575Z,90.14
2022-10-15T15:22:31.928Z,89.93
2022-10-15T15:25:00.667Z,89.81
2022-10-15T15:27:29.641Z,89.80
2022-10-15T15:29:57.222Z,89.70
2022-10-15T15:32:25.719Z,89.50
2022-10-15T15:34:52.945Z,89.42
2022-10-15T15:37:21.688Z,89.26
2022-10-15T15:39:48.985Z,89.01
2022-10-15T15:42:18.820Z,88.98
2022-10-15T15:44:45.739Z,88.80
2022-10-15T15:47:13.050Z,88.80
2022-10-15T15:49:43.158Z,88.68
2022-10-15T15:52:18.815Z,88.58
2022-10-15T15:54:48.980Z,88.38
2022-10-15T15:57:15.848Z,88.33
2022-10-15T15:59:42.515Z,88.35
2022-10-15T16:02:11.807Z,88.26
2022-10-15T16:04:39.302Z,88.23
2022-10-15T16:07:10.282Z,88.02
2022-10-15T16:09:40.145Z,88.15
2022-10-15T16:12:07.042Z,88.08
2022-10-15T16:14:33.830Z,87.83
2022-10-15T16:17:00.867Z,87.93
2022-10-15T16:19:27.461Z,87.76
2022-10-15T16:21:54.117Z,87.50
2022-10-15T16:24:22.120Z,87.60
2022-10-15T16:26:48.814Z,87.33
2022-10-15T16:29:16.987Z,87.40
2022-10-15T16:31:43.740Z,87.31
2022-10-15T16:34:10.351Z,86.99
2022-10-15T16:36:37.167Z,86.90
2022-10-15T16:39:04.075Z,86.69
2022-10-15T16:41:32.074Z,86.44
2022-10-15T16:43:58.914Z,86.52
2022-10-15T16:46:25.898Z,86.25
2022-10-15T16:48:54.322Z,86.37
2022-10-15T16:51:21.629Z,86.06
2022-10-15T16:53:49.639Z,86.29
2022-10-15T16:56:18.523Z,85.97
2022-10-15T16:58:47.390Z,85.87
2022-10-15T17:01:16.612Z,85.92
2022-10-15T17:03:45.484Z,85.88
2022-10-15T17:06:13.768Z,85.64
2022-10-15T17:08:43.620Z,85.75
2022-10-15T17:11:11.105Z,85.71
2022-10-15T17:13:37.732Z,85.59
2022-10-15T17:16:11.750Z,85.52
2022-10-15T17:18:39.557Z,85.26
2022-10-15T17:21:09.177Z,85.43
2022-10-15T17:23:36.315Z,85.49
2022-10-15T17:26:05.175Z,85.43
2022-10-15T17:28:31.748Z,85.34
2022-10-15T17:31:03.063Z,85.38
2022-10-15T17:33:31.103Z,85.29
2022-10-15T17:36:01.728Z,85.59
2022-10-15T17:38:28.364Z,85.41
2022-10-15T17:40:55.148Z,85.22
2022-10-15T17:43:21.844Z,85.17
2022-10-15T17:45:48.507Z,85.36
2022-10-15T17:48:15.736Z,85.31
2022-10-15T17:50:45.419Z,85.32
2022-10-15T17:53:13.427Z,85.17
2022-10-15T17:55:40.352Z,85.00
2022-10-15T17:58:07.507Z,85.31
2022-10-15T18:00:34.238Z,85.23
2022-10-15T18:03:01.284Z,85.31
2022-10-15T18:05:28.249Z,85.21
2022-10-15T18:07:56.276Z,85.06
2022-10-15T18:10:23.083Z,84.96
2022-10-15T18:12:49.765Z,84.92
2022-10-15T18:15:16.510Z,85.40
2022-10-15T18:17:43.071Z,85.31
2022-10-15T18:20:10.295Z,85.20
2022-10-15T18:22:36.913Z,85.24
2022-10-15T18:25:05.925Z,85.51
2022-10-15T18:27:34.537Z,85.42
2022-10-15T18:30:01.515Z,85.47
2022-10-15T18:32:28.211Z,85.66
2022-10-15T18:34:54.998Z,85.37
2022-10-15T18:37:21.644Z,85.63
2022-10-15T18:39:48.254Z,85.66
2022-10-15T18:42:16.164Z,85.58
2022-10-15T18:44:42.966Z,85.79
2022-10-15T18:47:09.750Z,85.79
2022-10-15T18:49:36.412Z,85.71
2022-10-15T18:52:10.808Z,85.57
2022-10-15T18:54:48.443Z,85.69
2022-10-15T18:57:16.415Z,85.58
2022-10-15T18:59:43.174Z,85.87
2022-10-15T19:02:10.050Z,85.70
2022-10-15T19:04:36.888Z,85.84
2022-10-15T19:07:04.530Z,85.83
2022-10-15T19:09:31.546Z,85.82
2022-10-15T19:11:58.778Z,85.84
2022-10-15T19:14:30.731Z,85.76
2022-10-15T19:16:58.065Z,85.97
2022-10-15T19:19:25.595Z,86.03
2022-10-15T19:21:53.026Z,85.96
2022-10-15T19:24:21.487Z,85.89
2022-10-15T19:26:49.269Z,85.79
2022-10-15T19:29:16.104Z,85.91
2022-10-15T19:31:45.854Z,85.87
2022-10-15T19:34:13.263Z,85.89
2022-10-15T19:36:42.447Z,85.98
2022-10-15T19:39:12.542Z,86.23
2022-10-15T19:41:40.698Z,86.26
2022-10-15T19:44:08.914Z,86.28
2022-10-15T19:46:35.941Z,86.29
2022-10-15T19:49:04.132Z,86.15
2022-10-15T19:51:31.574Z,86.26
2022-10-15T19:54:00.110Z,86.14
2022-10-15T19:56:27.995Z,85.96
2022-10-15T19:58:56.058Z,86.02
2022-10-15T20:01:22.991Z,85.88
2022-10-15T20:03:49.716Z,85.88
2022-10-15T20:06:18.455Z,86.06
2022-10-15T20:08:45.010Z,85.91
2022-10-15T20:11:12.211Z,85.79
2022-10-15T20:13:39.340Z,86.04
2022-10-15T20:16:07.896Z,85.83
2022-10-15T20:18:35.370Z,85.87
2022-10-15T20:21:07.008Z,85.92
2022-10-15T20:23:35.102Z,85.85
2022-10-15T20:26:04.643Z,85.61
2022-10-15T20:28:31.547Z,85.71
2022-10-15T20:30:58.199Z,85.72
2022-10-15T20:33:25.009Z,85.49
2022-10-15T20:35:55.216Z,85.78
2022-10-15T20:38:21.986Z,85.54
2022-10-15T20:40:50.121Z,85.37
2022-10-15T20:43:18.365Z,85.23
2022-10-15T20:45:46.099Z,85.24
2022-10-15T20:48:18.327Z,85.11
2022-10-15T20:50:49.717Z,85.00
2022-10-15T20:53:17.082Z,85.05
2022-10-15T20:55:44.096Z,85.08
2022-10-15T21:00:42.423Z,85.18
2022-10-15T21:03:09.105Z,84.98
2022-10-15T21:05:35.685Z,84.96
2022-10-15T21:08:02.317Z,84.78
2022-10-15T21:10:28.977Z,84.95
2022-10-15T21:12:55.614Z,84.73
2022-10-15T21:15:24.028Z,84.65
2022-10-15T21:17:50.625Z,84.58
2022-10-15T21:20:17.433Z,84.62
2022-10-15T21:22:44.071Z,84.63
2022-10-15T21:25:10.697Z,84.68
2022-10-15T21:27:38.576Z,84.33
2022-10-15T21:30:06.244Z,84.33
2022-10-15T21:32:34.538Z,84.44
2022-10-15T21:35:06.176Z,84.05
2022-10-15T21:37:34.687Z,84.26
2022-10-15T21:40:03.796Z,84.07
2022-10-15T21:42:32.806Z,84.23
2022-10-15T21:44:59.471Z,83.87
2022-10-15T21:47:26.672Z,84.02
2022-10-15T21:49:55.568Z,83.90
2022-10-15T21:52:22.875Z,83.79
2022-10-15T21:54:51.671Z,83.75
2022-10-15T21:57:18.353Z,83.62
2022-10-15T21:59:45.304Z,83.86
2022-10-15T22:02:12.116Z,83.74
2022-10-15T22:04:39.121Z,84.00
2022-10-15T22:07:09.137Z,83.72
2022-10-15T22:09:36.199Z,83.90
2022-10-15T22:12:03.039Z,83.79
2022-10-15T22:14:30.441Z,83.88
2022-10-15T22:16:57.152Z,83.75
2022-10-15T22:19:23.827Z,83.89
2022-10-15T22:21:50.461Z,83.94
2022-10-15T22:24:20.638Z,83.93
2022-10-15T22:26:49.041Z,83.92
2022-10-15T22:29:18.782Z,83.87
2022-10-15T22:31:45.539Z,83.79
2022-10-15T22:34:12.290Z,83.59
2022-10-15T22:36:39.325Z,83.50
2022-10-15T22:39:07.804Z,83.63
2022-10-15T22:41:40.215Z,83.68
2022-10-15T22:44:09.216Z,83.45
2022-10-15T22:46:37.969Z,83.55
2022-10-15T22:49:05.627Z,83.71
2022-10-15T22:51:32.579Z,83.33
2022-10-15T22:54:00.099Z,83.52
2022-10-15T22:56:28.076Z,83.48
2022-10-15T22:58:57.870Z,83.59
2022-10-15T23:01:26.209Z,83.31
2022-10-15T23:03:55.672Z,83.41
2022-10-15T23:06:23.490Z,83.62
2022-10-15T23:08:51.656Z,83.38
2022-10-15T23:11:22.860Z,83.51
2022-10-15T23:13:53.731Z,83.56
2022-10-15T23:16:23.926Z,83.29
2022-10-15T23:18:54.583Z,83.37
2022-10-15T23:21:27.808Z,83.47
2022-10-15T23:23:54.947Z,83.43
2022-10-15T23:26:22.488Z,83.58
2022-10-15T23:28:51.434Z,83.36
2022-10-15T23:31:19.962Z,83.34
2022-10-15T23:33:48.335Z,83.48
2022-10-15T23:36:15.359Z,83.34
2022-10-15T23:38:44.765Z,83.29
2022-10-15T23:41:11.917Z,83.55
2022-10-15T23:43:38.979Z,83.53
2022-10-15T23:46:05.765Z,83.26
2022-10-15T23:48:32.642Z,83.42
2022-10-15T23:51:03.667Z,83.24
2022-10-15T23:53:33.084Z,83.18
2022-10-15T23:56:01.482Z,83.36
2022-10-15T23:58:28.102Z,83.37
